• Join FlightAware (Why Join?)
  • Login
  • US Flag 
07:18AM EDT


 

Airport Tracker/Info


-or-


 

Live Flight TrackerFlight Track Log ✈ UAL5881 ✈ 26-Apr-2013 ✈ KIND - KIAD

Flight Track Log - Related Links

Times and Time Zones

All times are in EDT time to prevent confusion due to time zone crossing. See the UAL5881 flight status page for this flight to view local times or setup timezone preferences in your user account.

Time Position Orientation Groundspeed Altitude Reporting Facility
EDT Latitude Longitude Course Direction KTS MPH feet Rate Location/Type
09:42AM 39.7000 -86.3000 74° East 168 193 1,500  Level Indianapolis TRACON
09:43AM 39.6500 -86.3333 207° Southwest 207 238 3,600 1,980 Climbing Indianapolis TRACON
09:44AM 39.6333 -86.2667 108° East 239 275 5,700 1,980 Climbing Indianapolis TRACON
09:45AM 39.7955 -85.7047 79° East  Level FlightAware Approximate
09:46AM 39.8182 -85.5597 74° East  Level FlightAware Approximate
09:46AM 39.6703 -86.1142 72° East 265 305 9,400  Level Indianapolis Center
09:47AM 39.8498 -85.4175 74° East  Level FlightAware Approximate
09:47AM 39.6944 -86.0181 72° East 278 320 11,300  Level Indianapolis Center
09:48AM 39.7258 -85.8919 72° East 313 360 12,600 1,140 Climbing Indianapolis Center
09:49AM 39.7553 -85.7714 72° East 344 396 13,700 1,020 Climbing Indianapolis Center
09:50AM 39.7867 -85.6442 72° East 366 421 14,800 1,080 Climbing Indianapolis Center
09:51AM 39.8194 -85.5119 72° East 380 437 16,000 1,080 Climbing Indianapolis Center
09:52AM 39.8519 -85.3769 73° East 388 447 17,100 780 Climbing Indianapolis Center
09:53AM 39.8831 -85.2392 74° East 395 455 17,700 900 Climbing Indianapolis Center
09:54AM 39.8939 -85.0653 85° East 408 470 19,000 1,140 Climbing Indianapolis Center
09:55AM 39.9000 -84.9131 87° East 418 481 20,100 960 Climbing Indianapolis Center
09:56AM 39.9086 -84.7675 86° East 425 489 21,000 960 Climbing Indianapolis Center
09:57AM 39.9167 -84.6083 86° East 434 499 22,100 1,020 Climbing Indianapolis Center
09:58AM 39.9242 -84.4481 86° East 439 505 23,200 1,080 Climbing Indianapolis Center
09:59AM 39.9339 -84.2583 86° East 445 512 24,400 1,080 Climbing Indianapolis Center
10:00AM 39.9531 -84.0994 81° East 440 506 25,500 960 Climbing Indianapolis Center
10:01AM 39.9753 -83.9389 80° East 445 512 26,500 960 Climbing Indianapolis Center
10:02AM 39.9972 -83.7794 80° East 442 509 27,600 1,020 Climbing Indianapolis Center
10:03AM 40.0186 -83.6181 80° East 442 509 28,700 960 Climbing Indianapolis Center
10:04AM 40.0400 -83.4564 80° East 441 507 29,700 960 Climbing Indianapolis Center
10:05AM 40.0608 -83.2950 80° East 442 509 30,800 1,020 Climbing Indianapolis Center
10:06AM 40.0819 -83.1328 80° East 446 513 31,900 960 Climbing Indianapolis Center
10:07AM 40.0747 -82.9658 93° East 462 532 32,900 480 Climbing Indianapolis Center
10:08AM 40.0486 -82.7939 101° East 476 548 33,000  Climbing Indianapolis Center
10:09AM 40.0167 -82.5825 101° East 500 575 33,000  Level Indianapolis Center
10:10AM 39.9872 -82.4014 102° East 506 582 33,000  Level Indianapolis Center
10:12AM 39.9592 -82.2233 102° East 499 574 33,000  Level Indianapolis Center
10:13AM 39.9317 -82.0472 101° East 492 566 33,000  Level Indianapolis Center
10:14AM 39.9019 -81.8714 102° East 492 566 33,000  Level Indianapolis Center
10:15AM 39.8742 -81.6961 102° East 493 567 33,000  Level Indianapolis Center
10:15AM 39.8503 -81.5647 103° East 490 564 33,000  Level Cleveland Center
10:16AM 39.8414 -81.3861 94° East 495 570 33,000  Level Cleveland Center
10:17AM 39.9006 -81.2433 62° Northeast 473 544 33,000  Level Cleveland Center
10:18AM 39.9333 -81.1711 59° Northeast 481 554 33,000  Level Indianapolis Center
10:18AM 39.9700 -81.0978 57° Northeast 465 535 33,000  Level Cleveland Center
10:19AM 40.0333 -80.9492 61° Northeast 465 535 33,000  Level Cleveland Center
10:20AM 40.0003 -80.7808 104° East 438 504 33,000  Level Cleveland Center
10:21AM 39.9547 -80.6183 110° East 451 519 33,000  Level Cleveland Center
10:22AM 39.8794 -80.4425 119° Southeast 479 551 33,000  Level Cleveland Center
10:24AM 39.7894 -80.2200 118° Southeast 492 566 33,000  Level Washington Center
10:25AM 39.7244 -80.0622 118° Southeast 492 566 33,000 -180 Level Washington Center
10:26AM 39.6553 -79.9042 120° Southeast 497 572 32,700 -1,440 Descending Washington Center
10:27AM 39.5900 -79.7467 118° Southeast 497 572 30,200 -2,520 Descending Washington Center
10:28AM 39.5264 -79.5925 118° Southeast 497 572 27,600 -1,620 Descending Washington Center
10:29AM 39.4836 -79.4367 110° East 476 548 27,000 -480 Descending Washington Center
10:31AM 39.4211 -79.0894 103° East 476 548 26,200 -960 Descending Washington Center
10:32AM 39.3939 -78.9486 104° East 464 534 24,100 -3,000 Descending Washington Center
10:33AM 39.3647 -78.7969 104° East 451 519 20,200 -3,360 Descending Washington Center
10:34AM 39.3394 -78.6536 103° East 429 494 17,500 -2,520 Descending Washington Center
10:35AM 39.3136 -78.5156 104° East 406 467 15,300 -2,280 Descending Washington Center
10:36AM 39.2897 -78.3833 103° East 385 443 13,000 -2,040 Descending Washington Center
10:37AM 39.2419 -78.2769 120° Southeast 358 412 11,200 -1,260 Descending Washington Center
10:38AM 39.1919 -78.1867 126° Southeast 332 382 10,600 -1,260 Descending Washington Center
10:39AM 39.1436 -78.0992 125° Southeast 316 364 8,800 -1,680 Descending Washington Center
10:40AM 39.0994 -78.0147 124° Southeast 297 342 7,200 -960 Descending Washington Center
10:41AM 39.0533 -77.9306 125° Southeast 291 335 7,000 -120 Descending Washington Center
10:42AM 39.0111 -77.8436 122° Southeast 279 321 7,000 -300 Level Washington Center
10:43AM 38.9689 -77.7675 125° Southeast 267 307 6,400 -540 Descending Washington Center
10:44AM 38.9578 -77.6844 100° East 243 280 6,000 -180 Descending Washington Center
10:45AM 38.8833 -77.5833 133° Southeast 251 289 6,000 -240 Level Potomac TRACON
10:46AM 38.8333 -77.5667 165° South 210 242 5,500 -540 Descending Potomac TRACON
10:47AM 38.7667 -77.5833 191° South 206 237 5,000 -420 Descending Potomac TRACON
10:48AM 38.7500 -77.5333 113° Southeast 219 252 4,800 -840 Descending Potomac TRACON
10:50AM 38.8863 -77.4827 16° North  Level Estimated
10:50AM 38.8333 -77.4667 16° North 137 158 2,600  Level Potomac TRACON